Time;durP1;ratioP1;P1;durP2;ratioP2;P2;SDS_P1;SDS_P2;PMS_P1;PMS_P2;Temp;Humidity;BMP_temperature;BMP_pressure;BME280_temperature;BME280_humidity;BME280_pressure;Samples;Min_cycle;Max_cycle;Signal;HPM_P1;HPM_P2
2022/11/10 00:02:03;;;;;;;;;8.25;8.25;;;;;13.44;66.32;101686.13;4864164;29;45325;-67
2022/11/10 00:04:29;;;;;;;;;13.50;9.25;;;;;13.49;66.25;101692.25;4864184;29;45361;-68
2022/11/10 00:06:55;;;;;;;;;16.75;14.25;;;;;13.55;65.98;101709.94;4863961;29;45457;-68
2022/11/10 00:09:20;;;;;;;;;13.50;10.25;;;;;13.52;66.05;101713.63;4847186;29;47352;-68
2022/11/10 00:11:45;;;;;;;;;10.00;9.50;;;;;13.49;66.29;101705.66;4864036;29;45545;-67
2022/11/10 00:17:01;;;;;;;;;12.50;11.50;;;;;13.45;66.30;101709.34;4853572;29;45437;-67
2022/11/10 00:19:30;;;;;;;;;11.00;9.25;;;;;13.41;66.27;101703.19;4863736;29;47147;-67
2022/11/10 00:21:56;;;;;;;;;18.00;9.75;;;;;13.46;66.00;101720.00;4864144;29;45442;-68
2022/11/10 00:24:22;;;;;;;;;14.00;9.50;;;;;13.45;66.38;101725.44;4864138;29;45386;-68
2022/11/10 00:26:48;;;;;;;;;13.75;10.00;;;;;13.40;66.32;101725.56;4863949;29;45619;-68
2022/11/10 00:29:14;;;;;;;;;14.00;12.00;;;;;13.39;65.82;101725.63;4863679;29;46188;-68
2022/11/10 00:31:39;;;;;;;;;13.00;11.25;;;;;13.46;66.23;101746.84;4847569;29;45699;-68
2022/11/10 00:34:06;;;;;;;;;12.25;9.75;;;;;13.46;66.35;101748.66;4867072;29;45440;-68
2022/11/10 00:36:33;;;;;;;;;11.00;10.50;;;;;13.43;66.21;101746.94;4866856;29;45322;-67
2022/11/10 00:38:58;;;;;;;;;12.50;11.00;;;;;13.35;66.37;101735.56;4860842;29;47301;-67
2022/11/10 00:41:23;;;;;;;;;10.75;9.50;;;;;13.41;66.22;101746.09;4841506;29;45643;-67
2022/11/10 00:43:49;;;;;;;;;9.00;8.75;;;;;13.19;66.46;101712.75;4867088;29;45342;-68
2022/11/10 00:46:14;;;;;;;;;12.25;9.50;;;;;13.28;66.53;101737.50;4866742;29;45635;-68
2022/11/10 00:48:39;;;;;;;;;11.25;10.50;;;;;13.34;66.48;101745.38;4849689;29;47463;-68
2022/11/10 00:51:05;;;;;;;;;10.50;10.50;;;;;13.38;66.26;101756.03;4866796;29;45366;-68
2022/11/10 00:53:31;;;;;;;;;10.75;8.00;;;;;13.28;66.34;101733.91;4848983;29;45528;-67
2022/11/10 00:55:56;;;;;;;;;10.50;10.50;;;;;13.30;66.44;101753.53;4866717;29;45319;-68
2022/11/10 00:58:21;;;;;;;;;13.75;12.75;;;;;13.28;66.56;101745.53;4866789;29;45495;-67
2022/11/10 01:00:47;;;;;;;;;8.00;7.75;;;;;13.33;66.08;101770.47;4866521;29;45400;-67
2022/11/10 01:03:14;;;;;;;;;15.50;12.25;;;;;13.30;66.54;101766.94;4866745;29;45452;-67
2022/11/10 01:05:39;;;;;;;;;17.25;13.00;;;;;13.25;66.68;101766.19;4866605;29;45483;-68
2022/11/10 01:08:05;;;;;;;;;15.00;13.25;;;;;13.31;66.56;101776.75;4866363;29;46417;-68
2022/11/10 01:10:30;;;;;;;;;8.00;8.00;;;;;13.25;66.68;101766.19;4866695;29;45326;-68
2022/11/10 01:12:55;;;;;;;;;14.00;9.00;;;;;13.27;66.45;101775.94;4866607;29;45408;-68
2022/11/10 01:15:21;;;;;;;;;9.75;8.25;;;;;13.21;66.58;101769.88;4866586;29;45567;-68
2022/11/10 01:17:46;;;;;;;;;14.25;9.50;;;;;13.22;66.59;101771.63;4866408;29;46092;-68
2022/11/10 01:20:12;;;;;;;;;9.75;9.75;;;;;13.20;66.55;101777.03;4866489;29;45368;-68
2022/11/10 01:22:37;;;;;;;;;11.75;9.50;;;;;13.15;66.68;101770.91;4866698;29;45453;-68
2022/11/10 01:25:03;;;;;;;;;9.00;9.00;;;;;13.12;66.50;101776.38;4866757;29;45291;-68
2022/11/10 01:27:28;;;;;;;;;13.25;12.00;;;;;13.09;66.56;101780.00;4866311;29;45929;-67
2022/11/10 01:29:54;;;;;;;;;12.00;9.50;;;;;13.10;66.72;101781.75;4866458;29;45327;-68
2022/11/10 01:32:19;;;;;;;;;13.75;8.75;;;;;13.05;66.85;101781.00;4866513;29;45372;-67
2022/11/10 01:34:44;;;;;;;;;11.75;9.00;;;;;13.04;66.72;101781.03;4866601;29;45460;-67
2022/11/10 01:37:11;;;;;;;;;13.25;10.50;;;;;13.06;66.89;101789.91;4865704;29;55991;-68
2022/11/10 01:39:36;;;;;;;;;6.75;6.25;;;;;13.02;67.03;101783.75;4849385;29;45423;-67
2022/11/10 01:42:02;;;;;;;;;9.50;9.50;;;;;12.99;67.13;101786.50;4866129;29;45332;-68
2022/11/10 01:44:28;;;;;;;;;8.25;7.50;;;;;13.00;67.18;101795.44;4865429;29;45417;-67
2022/11/10 01:46:53;;;;;;;;;13.00;11.75;;;;;12.90;67.26;101781.41;4849109;29;47092;-68
2022/11/10 01:49:23;;;;;;;;;12.00;11.00;;;;;12.88;67.20;101791.25;4849231;29;45468;-67
2022/11/10 01:52:00;;;;;;;;;12.50;11.00;;;;;12.95;67.26;101807.16;4865401;29;45334;-67
2022/11/10 01:54:31;;;;;;;;;8.00;7.50;;;;;12.87;67.21;101798.44;4856420;29;45467;-67
2022/11/10 01:57:04;;;;;;;;;8.75;8.75;;;;;12.91;67.31;101813.53;4848617;29;48542;-67
2022/11/10 01:59:34;;;;;;;;;8.50;8.25;;;;;12.83;67.41;101799.44;4844163;29;45732;-68
2022/11/10 02:02:14;;;;;;;;;10.50;8.25;;;;;12.80;67.52;101804.88;4874396;29;45389;-67
2022/11/10 02:04:41;;;;;;;;;7.25;7.25;;;;;12.70;67.61;101796.16;4843531;29;45318;-67
2022/11/10 02:07:08;;;;;;;;;9.00;7.00;;;;;12.86;67.66;101822.59;4865613;29;46248;-67
2022/11/10 02:09:33;;;;;;;;;8.50;8.50;;;;;12.69;67.42;101788.16;4849018;29;45600;-67
2022/11/10 02:11:59;;;;;;;;;13.00;11.25;;;;;12.76;67.68;101816.56;4849112;29;45585;-67
2022/11/10 02:14:25;;;;;;;;;11.00;9.50;;;;;12.73;67.85;101811.28;4865453;29;45598;-67
2022/11/10 02:16:50;;;;;;;;;11.75;9.00;;;;;12.75;67.67;101813.00;4865748;29;45675;-68
2022/11/10 02:19:19;;;;;;;;;10.50;8.50;;;;;12.70;67.58;101809.56;4846659;29;45458;-67
2022/11/10 02:21:45;;;;;;;;;13.00;11.75;;;;;12.71;67.73;101813.13;4849012;29;45486;-68
2022/11/10 02:24:11;;;;;;;;;8.00;7.50;;;;;12.76;67.72;101822.81;4865547;29;45281;-67
2022/11/10 02:26:42;;;;;;;;;6.75;6.00;;;;;12.71;67.99;101824.72;4865614;29;45330;-67
2022/11/10 02:29:07;;;;;;;;;7.00;7.00;;;;;12.62;67.85;101799.97;4861404;29;45722;-68
2022/11/10 02:31:33;;;;;;;;;11.50;7.50;;;;;12.64;67.59;101811.50;4848825;29;45402;-68
2022/11/10 02:33:58;;;;;;;;;8.50;7.75;;;;;12.63;67.97;101807.97;4865594;29;45457;-68
2022/11/10 02:36:23;;;;;;;;;9.50;8.25;;;;;12.63;67.76;101807.06;4865238;29;46204;-67
2022/11/10 02:38:49;;;;;;;;;10.75;7.75;;;;;12.65;67.86;101810.59;4865265;29;45382;-67
2022/11/10 02:41:14;;;;;;;;;10.25;7.25;;;;;12.69;68.14;101821.19;4865554;29;45556;-67
2022/11/10 02:43:40;;;;;;;;;7.75;7.75;;;;;12.58;67.89;101812.56;4865413;29;45505;-68
2022/11/10 02:46:05;;;;;;;;;10.75;10.25;;;;;12.67;67.80;101824.84;4865121;29;45473;-68
2022/11/10 02:48:31;;;;;;;;;10.50;8.25;;;;;12.63;67.82;101825.81;4865099;29;45285;-67
2022/11/10 02:50:56;;;;;;;;;7.00;7.00;;;;;12.66;68.06;101837.34;4865606;29;45496;-67
2022/11/10 02:53:21;;;;;;;;;11.75;10.50;;;;;12.57;67.74;101816.13;4852933;29;45518;-68
2022/11/10 02:55:47;;;;;;;;;12.25;7.00;;;;;12.57;68.06;101819.69;4865006;29;45978;-67
2022/11/10 02:58:12;;;;;;;;;10.75;9.75;;;;;12.54;68.16;101822.44;4864934;29;45366;-68
2022/11/10 03:00:37;;;;;;;;;11.75;8.75;;;;;12.51;67.92;101821.63;4865116;29;45260;-67
2022/11/10 03:03:03;;;;;;;;;12.50;11.00;;;;;12.59;68.02;101833.91;4864942;29;45564;-67
2022/11/10 03:05:30;;;;;;;;;9.00;9.00;;;;;12.60;68.10;101841.03;4865073;29;47012;-68
2022/11/10 03:07:58;;;;;;;;;13.00;8.75;;;;;12.53;68.03;101827.81;4864658;29;45397;-67
2022/11/10 03:10:24;;;;;;;;;12.50;9.50;;;;;12.54;68.13;101829.59;4865284;29;45542;-67
2022/11/10 03:12:53;;;;;;;;;11.25;9.00;;;;;12.37;68.03;101800.53;4864724;29;45511;-67
2022/11/10 03:15:18;;;;;;;;;8.25;7.25;;;;;12.48;68.31;101821.69;4864733;29;47166;-68
2022/11/10 03:17:43;;;;;;;;;8.00;8.00;;;;;12.55;68.26;101831.38;4864853;29;45725;-67
2022/11/10 03:20:09;;;;;;;;;9.50;9.00;;;;;12.56;68.15;101841.16;4864995;29;45548;-68
2022/11/10 03:22:35;;;;;;;;;11.75;10.75;;;;;12.44;68.15;101814.66;4861936;29;45470;-68
2022/11/10 03:25:01;;;;;;;;;9.00;7.75;;;;;12.53;68.08;101836.75;4860359;29;47290;-68
2022/11/10 03:27:26;;;;;;;;;9.25;8.75;;;;;12.52;68.15;101836.78;4860280;29;45386;-67
2022/11/10 03:29:51;;;;;;;;;9.00;8.00;;;;;12.47;68.27;101833.34;4864718;29;45526;-68
2022/11/10 03:32:17;;;;;;;;;8.75;8.75;;;;;12.47;68.31;101839.56;4864612;29;45464;-67
2022/11/10 03:34:42;;;;;;;;;11.75;8.50;;;;;12.48;68.48;101849.38;4847333;29;50153;-67
2022/11/10 03:37:07;;;;;;;;;14.25;11.25;;;;;12.39;68.41;101836.19;4864353;29;45573;-67
2022/11/10 03:39:33;;;;;;;;;8.50;8.00;;;;;12.45;68.30;101843.22;4847863;29;45635;-67
2022/11/10 03:41:58;;;;;;;;;8.25;7.25;;;;;12.21;68.55;101808.00;4864624;29;45448;-68
2022/11/10 03:44:24;;;;;;;;;11.25;8.75;;;;;12.31;68.52;101830.09;4864402;29;45386;-67
2022/11/10 03:46:49;;;;;;;;;7.75;7.25;;;;;12.42;68.63;101860.22;4846811;29;45712;-67
2022/11/10 03:49:14;;;;;;;;;13.75;9.25;;;;;12.42;68.39;101853.06;4864524;29;45553;-67
2022/11/10 03:51:40;;;;;;;;;16.75;10.50;;;;;12.41;68.56;101855.75;4846112;29;45734;-68
2022/11/10 03:54:05;;;;;;;;;13.25;10.75;;;;;12.40;68.62;101865.59;4852244;29;45303;-67
2022/11/10 03:56:31;;;;;;;;;12.75;7.50;;;;;12.37;68.55;101864.78;4864364;29;45332;-67
2022/11/10 03:58:56;;;;;;;;;11.50;11.00;;;;;12.25;68.70;101847.19;4864516;29;45575;-67
2022/11/10 04:01:22;;;;;;;;;13.25;10.50;;;;;12.25;68.59;101849.00;4864333;29;45499;-67
2022/11/10 04:03:48;;;;;;;;;8.00;8.00;;;;;12.33;68.55;101873.78;4864213;29;46202;-67
2022/11/10 04:09:00;;;;;;;;;4.50;4.50;;;;;12.32;68.58;101877.41;4867855;29;45432;-68
2022/11/10 04:16:56;;;;;;;;;8.50;8.50;;;;;12.23;68.46;101860.63;4856500;29;45360;-68
2022/11/10 04:19:22;;;;;;;;;10.50;10.00;;;;;12.31;68.55;101875.63;4867288;29;45459;-67
2022/11/10 04:21:47;;;;;;;;;8.00;7.50;;;;;12.29;68.55;101866.75;4850426;29;45405;-67
2022/11/10 04:24:12;;;;;;;;;8.75;7.25;;;;;12.33;68.47;101879.13;4867252;29;46104;-67
2022/11/10 04:26:39;;;;;;;;;10.50;9.25;;;;;12.28;68.72;101875.69;4867343;29;45458;-67
2022/11/10 04:29:09;;;;;;;;;8.00;7.00;;;;;12.26;68.63;101877.53;4867097;29;45575;-67
2022/11/10 04:31:37;;;;;;;;;8.25;7.75;;;;;12.08;68.74;101849.34;4867085;29;45338;-67
2022/11/10 04:34:07;;;;;;;;;12.00;8.50;;;;;12.23;68.67;101887.38;4866919;29;45543;-67
2022/11/10 04:36:35;;;;;;;;;6.00;6.00;;;;;12.17;68.66;101881.28;4866960;29;45415;-67
2022/11/10 04:39:01;;;;;;;;;13.00;11.00;;;;;12.08;68.61;101855.59;4867077;29;45417;-67
2022/11/10 04:41:29;;;;;;;;;6.50;6.25;;;;;12.25;68.48;101891.84;4862815;29;45590;-67
2022/11/10 04:43:54;;;;;;;;;11.25;9.50;;;;;12.25;68.33;101899.88;4864334;29;45536;-67
2022/11/10 04:46:19;;;;;;;;;7.00;6.00;;;;;12.22;68.72;101901.66;4867101;29;45333;-67
2022/11/10 04:48:45;;;;;;;;;8.25;6.25;;;;;12.23;68.40;101907.94;4866909;29;45345;-68
2022/11/10 04:51:11;;;;;;;;;10.75;7.25;;;;;12.20;68.50;101908.00;4846987;29;45813;-67
2022/11/10 04:53:36;;;;;;;;;9.00;9.00;;;;;12.21;68.47;101916.00;4852539;29;45400;-67
2022/11/10 04:56:01;;;;;;;;;11.75;10.50;;;;;12.19;68.50;101909.75;4866859;29;45489;-68
2022/11/10 04:58:27;;;;;;;;;8.75;8.50;;;;;12.04;68.24;101897.59;4866987;29;45310;-68
2022/11/10 05:00:52;;;;;;;;;12.50;7.25;;;;;12.03;68.65;101902.97;4866542;29;45290;-67
2022/11/10 05:03:18;;;;;;;;;11.25;8.25;;;;;12.03;68.02;101902.97;4866523;29;46155;-67
2022/11/10 05:05:43;;;;;;;;;8.50;8.50;;;;;12.06;68.52;101918.94;4862319;29;45322;-68
2022/11/10 05:08:09;;;;;;;;;6.50;6.00;;;;;12.04;69.00;101913.66;4862459;29;45326;-67
2022/11/10 05:10:36;;;;;;;;;11.00;10.75;;;;;12.03;68.61;101919.91;4866948;29;45433;-67
2022/11/10 05:13:03;;;;;;;;;13.50;11.00;;;;;12.05;68.81;101928.78;4866356;29;45505;-68
2022/11/10 05:15:29;;;;;;;;;9.50;8.75;;;;;12.03;68.56;101927.94;4866587;29;45739;-68
2022/11/10 05:17:55;;;;;;;;;12.25;10.00;;;;;12.03;68.52;101937.78;4866585;29;45555;-68
2022/11/10 05:20:22;;;;;;;;;10.00;7.25;;;;;12.10;68.79;101954.59;4849772;29;45485;-67
2022/11/10 05:25:35;;;;;;;;;14.25;12.75;;;;;11.77;68.79;101909.66;4866446;29;45622;-67
2022/11/10 05:28:01;;;;;;;;;12.00;11.00;;;;;12.01;69.03;101947.59;4823160;29;45527;-67
2022/11/10 05:30:26;;;;;;;;;12.50;11.00;;;;;11.93;69.03;101950.44;4859627;29;45485;-67
2022/11/10 05:32:52;;;;;;;;;10.75;9.25;;;;;11.92;68.82;101947.78;4866279;29;46280;-68
2022/11/10 05:35:17;;;;;;;;;4.75;3.50;;;;;11.92;68.92;101958.50;4849499;29;45479;-67
2022/11/10 05:37:42;;;;;;;;;10.00;9.00;;;;;11.99;68.80;101968.16;4866259;29;45482;-68
2022/11/10 05:40:08;;;;;;;;;9.25;9.25;;;;;11.94;69.01;101965.56;4866243;29;45512;-67
2022/11/10 05:42:33;;;;;;;;;10.50;10.00;;;;;11.91;69.00;101951.34;4866128;29;45387;-67
2022/11/10 05:44:59;;;;;;;;;10.25;10.25;;;;;11.91;68.81;101960.28;4866117;29;46175;-67
2022/11/10 05:47:24;;;;;;;;;12.75;8.00;;;;;11.77;68.82;101946.25;4849155;29;45397;-67
2022/11/10 05:49:49;;;;;;;;;10.75;8.00;;;;;11.80;68.75;101952.41;4866133;29;45326;-67
2022/11/10 05:52:15;;;;;;;;;10.50;7.75;;;;;11.80;68.79;101952.41;4862036;29;45368;-67
2022/11/10 05:54:40;;;;;;;;;8.25;8.25;;;;;11.73;68.73;101940.06;4841373;29;45281;-68
2022/11/10 05:57:05;;;;;;;;;10.75;9.50;;;;;11.76;68.82;101952.50;4865964;29;45400;-67
2022/11/10 05:59:31;;;;;;;;;6.50;6.50;;;;;11.73;69.02;101952.53;4866104;29;45432;-67
2022/11/10 06:01:56;;;;;;;;;6.00;6.00;;;;;11.91;68.55;101984.38;4865730;29;46160;-67
2022/11/10 06:04:21;;;;;;;;;10.50;9.00;;;;;11.91;68.86;101986.13;4865914;29;45326;-67
2022/11/10 06:06:47;;;;;;;;;11.50;10.25;;;;;11.89;68.99;101987.94;4865685;29;45483;-68
2022/11/10 06:09:12;;;;;;;;;10.25;9.00;;;;;11.85;69.22;101987.13;4865934;29;45306;-67
2022/11/10 06:11:37;;;;;;;;;9.25;8.75;;;;;11.85;69.17;101985.31;4865597;29;46418;-68
2022/11/10 06:14:03;;;;;;;;;9.75;9.00;;;;;11.80;69.12;101973.81;4865461;29;45373;-67
2022/11/10 06:16:29;;;;;;;;;12.00;10.25;;;;;11.83;69.14;101988.94;4865868;29;45465;-67
2022/11/10 06:18:54;;;;;;;;;11.50;7.50;;;;;11.85;69.06;101996.03;4865606;29;45428;-67
2022/11/10 06:21:20;;;;;;;;;10.75;9.50;;;;;11.81;69.29;101986.28;4848583;29;47537;-68
2022/11/10 06:23:45;;;;;;;;;9.75;9.75;;;;;11.83;69.05;101994.31;4848741;29;45393;-67
2022/11/10 06:26:10;;;;;;;;;9.25;7.00;;;;;11.76;69.15;101982.81;4865653;29;45461;-67
2022/11/10 06:28:36;;;;;;;;;11.75;8.25;;;;;11.71;69.09;101979.34;4864989;29;45585;-67
2022/11/10 06:31:01;;;;;;;;;11.00;7.50;;;;;11.73;69.11;101985.53;4848202;29;47196;-67
2022/11/10 06:33:28;;;;;;;;;7.00;6.00;;;;;11.65;69.38;101979.44;4865531;29;45357;-67
2022/11/10 06:35:54;;;;;;;;;12.50;10.75;;;;;11.79;69.47;102004.13;4865150;29;45560;-68
2022/11/10 06:38:19;;;;;;;;;10.50;8.75;;;;;11.71;69.36;101994.50;4865167;29;45399;-67
2022/11/10 06:40:44;;;;;;;;;12.50;10.00;;;;;11.82;69.15;102014.78;4865162;29;47821;-67
2022/11/10 06:43:09;;;;;;;;;10.75;10.00;;;;;11.82;69.30;102024.63;4848485;29;45335;-67
2022/11/10 06:45:35;;;;;;;;;12.25;11.25;;;;;11.77;69.32;102018.47;4865061;29;45397;-67
2022/11/10 06:48:04;;;;;;;;;9.75;9.25;;;;;11.70;69.45;102009.66;4848372;29;45525;-67
2022/11/10 06:50:29;;;;;;;;;11.25;8.50;;;;;11.77;69.33;102029.16;4846650;29;48797;-67
2022/11/10 06:52:58;;;;;;;;;11.75;10.00;;;;;11.67;69.24;102015.06;4855915;29;45482;-67
2022/11/10 06:55:24;;;;;;;;;8.25;8.25;;;;;11.75;69.42;102034.53;4862731;29;45356;-67
2022/11/10 06:57:49;;;;;;;;;12.00;8.00;;;;;11.80;69.20;102045.19;4864855;29;45498;-67
2022/11/10 07:00:15;;;;;;;;;12.00;12.00;;;;;11.69;69.43;102026.63;4863483;29;48203;-67
2022/11/10 07:02:41;;;;;;;;;12.25;9.75;;;;;11.79;69.51;102044.28;4865071;29;45325;-67
2022/11/10 07:05:06;;;;;;;;;13.25;8.00;;;;;11.79;69.50;102054.09;4865170;29;45294;-67
2022/11/10 07:07:32;;;;;;;;;11.50;11.25;;;;;11.71;69.14;102045.31;4847903;29;45580;-67
2022/11/10 07:09:57;;;;;;;;;12.00;11.50;;;;;11.82;69.65;102070.09;4864897;29;46271;-68
2022/11/10 07:12:22;;;;;;;;;5.50;5.50;;;;;11.81;69.56;102076.34;4864930;29;45302;-67
2022/11/10 07:14:48;;;;;;;;;10.00;10.00;;;;;11.80;69.56;102079.97;4864629;29;45513;-67
2022/11/10 07:17:13;;;;;;;;;10.00;10.00;;;;;11.75;69.47;102071.13;4864966;29;45260;-66
2022/11/10 07:19:39;;;;;;;;;9.75;9.75;;;;;11.80;69.79;102079.97;4864634;29;46350;-66
2022/11/10 07:22:05;;;;;;;;;7.00;7.00;;;;;11.74;69.79;102080.03;4864739;29;45337;-67
2022/11/10 07:24:31;;;;;;;;;10.50;9.00;;;;;11.77;69.77;102083.56;4864852;29;45420;-66
2022/11/10 07:26:56;;;;;;;;;9.50;8.00;;;;;11.73;69.65;102079.16;4847772;29;45540;-66
2022/11/10 07:29:23;;;;;;;;;10.50;7.50;;;;;11.63;69.79;102064.19;4864249;29;46283;-66
2022/11/10 07:31:48;;;;;;;;;10.00;8.75;;;;;11.70;69.71;102081.00;4864568;29;45461;-66
2022/11/10 07:34:13;;;;;;;;;10.25;9.50;;;;;11.59;69.87;102055.28;4864758;29;45416;-66
2022/11/10 07:36:39;;;;;;;;;9.00;9.00;;;;;11.66;69.70;102074.81;4847495;29;45324;-66
2022/11/10 07:39:04;;;;;;;;;9.75;8.75;;;;;11.74;69.84;102088.94;4864154;29;45982;-66
2022/11/10 07:41:30;;;;;;;;;10.25;10.25;;;;;11.81;70.04;102113.81;4864536;29;45301;-66
2022/11/10 07:43:55;;;;;;;;;10.75;8.75;;;;;11.81;70.09;102108.47;4866385;29;45464;-66
2022/11/10 07:46:21;;;;;;;;;12.50;11.50;;;;;11.73;70.04;102100.56;4866643;29;45326;-66
2022/11/10 07:48:46;;;;;;;;;12.00;12.00;;;;;11.83;69.97;102117.38;4866035;29;47656;-66
2022/11/10 07:51:11;;;;;;;;;13.25;11.25;;;;;11.78;69.71;102114.75;4850896;29;45500;-67
2022/11/10 07:53:38;;;;;;;;;12.75;11.25;;;;;11.76;70.07;102121.94;4855740;29;45273;-66
2022/11/10 07:56:04;;;;;;;;;11.25;10.75;;;;;11.65;69.81;102102.47;4867678;29;45590;-66
2022/11/10 07:58:29;;;;;;;;;12.25;12.25;;;;;11.59;69.55;102107.91;4867374;29;45326;-66
2022/11/10 08:00:55;;;;;;;;;11.00;10.00;;;;;11.84;70.05;102157.47;4850662;29;45816;-66
2022/11/10 08:03:20;;;;;;;;;16.00;13.50;;;;;11.84;69.69;102161.91;4867380;29;45426;-66
2022/11/10 08:05:46;;;;;;;;;14.25;12.00;;;;;11.82;69.88;102164.63;4847455;29;45365;-66
2022/11/10 08:08:12;;;;;;;;;10.00;9.75;;;;;11.74;70.03;102161.16;4853878;29;47111;-66
2022/11/10 08:10:39;;;;;;;;;13.00;13.00;;;;;11.70;70.11;102164.81;4867603;29;45481;-66
2022/11/10 08:13:07;;;;;;;;;14.25;13.00;;;;;11.76;69.71;102175.44;4867424;29;45387;-66
2022/11/10 08:15:33;;;;;;;;;15.00;14.25;;;;;11.78;70.08;102188.78;4867166;29;45325;-66
2022/11/10 08:18:03;;;;;;;;;12.25;12.25;;;;;11.77;70.04;102187.88;4867308;29;45536;-66
2022/11/10 08:20:29;;;;;;;;;17.25;12.75;;;;;11.61;70.37;102172.94;4867069;29;45631;-66
2022/11/10 08:23:02;;;;;;;;;16.25;14.50;;;;;11.73;70.25;102199.53;4867326;29;45385;-66
2022/11/10 08:25:29;;;;;;;;;12.00;11.00;;;;;11.62;70.63;102194.31;4835163;29;45529;-67
2022/11/10 08:28:11;;;;;;;;;14.00;12.00;;;;;11.56;70.62;102183.72;4849735;29;47422;-66
2022/11/10 08:30:38;;;;;;;;;15.50;15.25;;;;;11.67;70.74;102194.28;4866802;29;45524;-66
2022/11/10 08:33:06;;;;;;;;;14.00;13.50;;;;;11.57;70.77;102184.59;4867382;29;45400;-66
2022/11/10 08:35:36;;;;;;;;;13.25;12.75;;;;;11.63;70.60;102195.22;4865588;29;45533;-66
2022/11/10 08:38:09;;;;;;;;;13.50;12.75;;;;;11.78;70.71;102220.91;4867071;29;46348;-67
2022/11/10 08:40:34;;;;;;;;;21.25;19.00;;;;;11.75;70.67;102216.47;4866940;29;45257;-67
2022/11/10 08:43:01;;;;;;;;;14.00;13.75;;;;;11.71;70.56;102204.03;4867401;29;45420;-66
2022/11/10 08:45:26;;;;;;;;;14.75;13.50;;;;;11.66;70.55;102189.81;4866643;29;45564;-66
2022/11/10 08:48:00;;;;;;;;;22.75;16.75;;;;;11.73;70.49;102199.53;4866828;29;45433;-66
2022/11/10 08:50:26;;;;;;;;;15.00;13.25;;;;;11.83;70.35;102221.72;4866932;29;45363;-66
2022/11/10 08:52:51;;;;;;;;;10.25;9.50;;;;;11.81;70.59;102216.38;4857873;29;45400;-66
2022/11/10 08:55:18;;;;;;;;;11.75;11.75;;;;;11.80;70.37;102214.59;4846667;29;45614;-66
2022/11/10 08:57:45;;;;;;;;;13.00;11.25;;;;;11.90;70.29;102235.88;4866632;29;46883;-66
2022/11/10 09:00:11;;;;;;;;;15.00;12.75;;;;;11.80;70.50;102214.59;4866523;29;45629;-67
2022/11/10 09:02:36;;;;;;;;;14.50;13.00;;;;;11.78;70.29;102207.50;4867065;29;45252;-66
2022/11/10 09:05:02;;;;;;;;;13.50;12.25;;;;;11.90;70.40;102230.53;4849796;29;45314;-67
2022/11/10 09:07:27;;;;;;;;;14.00;13.75;;;;;12.01;70.35;102250.00;4866626;29;46118;-66
2022/11/10 09:09:53;;;;;;;;;12.75;12.75;;;;;11.96;70.25;102242.06;4866195;29;55501;-67
2022/11/10 09:12:18;;;;;;;;;15.00;13.50;;;;;11.85;70.17;102215.41;4866796;29;45305;-66
2022/11/10 09:14:43;;;;;;;;;14.75;12.50;;;;;11.98;70.30;102242.06;4849526;29;45451;-67
2022/11/10 09:17:09;;;;;;;;;17.75;16.50;;;;;12.04;70.28;102249.97;4866487;29;46141;-66
2022/11/10 09:19:34;;;;;;;;;12.25;12.25;;;;;11.94;70.22;102235.84;4866399;29;45382;-66
2022/11/10 09:21:59;;;;;;;;;15.75;13.50;;;;;12.11;70.05;102261.47;4846646;29;45372;-66
2022/11/10 09:24:25;;;;;;;;;13.50;13.25;;;;;12.12;70.03;102269.47;4863317;29;45598;-66
2022/11/10 09:26:50;;;;;;;;;16.00;15.00;;;;;12.00;69.99;102243.78;4866418;29;45493;-66
2022/11/10 09:29:16;;;;;;;;;16.25;13.75;;;;;12.10;70.25;102262.41;4848765;29;51660;-67
2022/11/10 09:31:44;;;;;;;;;14.75;14.00;;;;;12.03;70.19;102250.91;4866542;29;45425;-67
2022/11/10 09:34:10;;;;;;;;;15.00;13.75;;;;;12.05;70.15;102257.09;4866110;29;46885;-66
2022/11/10 09:36:35;;;;;;;;;13.00;12.25;;;;;11.99;70.48;102247.34;4849154;29;47127;-67
2022/11/10 09:39:00;;;;;;;;;16.00;14.00;;;;;12.12;70.22;102257.91;4849347;29;45589;-66
2022/11/10 09:41:28;;;;;;;;;11.25;11.25;;;;;12.15;70.46;102264.09;4866235;29;45451;-66
2022/11/10 09:44:21;;;;;;;;;15.00;12.25;;;;;12.19;70.48;102272.97;4865946;29;45302;-66
2022/11/10 09:46:55;;;;;;;;;16.25;14.50;;;;;12.22;70.62;102286.31;4849060;29;48119;-66
2022/11/10 09:49:37;;;;;;;;;15.50;14.50;;;;;12.02;70.63;102266.03;4865795;29;45354;-66
2022/11/10 09:52:04;;;;;;;;;17.50;16.00;;;;;12.09;70.78;102279.34;4846245;29;45481;-66
2022/11/10 09:54:53;;;;;;;;;17.00;15.00;;;;;12.14;70.78;102294.44;4856594;29;45400;-66
2022/11/10 09:57:22;;;;;;;;;17.75;16.25;;;;;12.08;70.94;102283.84;4865738;29;45453;-66
2022/11/10 09:59:48;;;;;;;;;21.75;15.50;;;;;12.05;70.82;102290.09;4865530;29;45734;-66
2022/11/10 10:02:36;;;;;;;;;12.75;12.75;;;;;12.07;71.32;102294.56;4865934;29;45448;-67
2022/11/10 10:05:31;;;;;;;;;14.00;12.00;;;;;12.06;71.38;102296.31;4864875;29;45517;-66
2022/11/10 10:08:04;;;;;;;;;12.00;12.00;;;;;11.98;71.40;102279.53;4865361;29;46648;-66
2022/11/10 10:10:44;;;;;;;;;20.00;15.00;;;;;11.96;71.37;102279.53;4865889;29;45663;-66
2022/11/10 10:13:44;;;;;;;;;15.25;14.25;;;;;11.96;71.58;102284.88;4848723;29;45387;-66
2022/11/10 10:16:16;;;;;;;;;20.75;15.75;;;;;12.04;71.49;102307.09;4865549;29;45616;-66
2022/11/10 10:18:51;;;;;;;;;20.75;17.25;;;;;12.02;71.48;102302.66;4865613;29;45431;-67
2022/11/10 10:21:26;;;;;;;;;17.25;15.25;;;;;12.09;71.67;102317.69;4848283;29;45781;-66
2022/11/10 10:23:54;;;;;;;;;15.25;15.25;;;;;12.08;71.53;102307.00;4848938;29;45418;-66
2022/11/10 10:26:30;;;;;;;;;17.50;15.00;;;;;12.12;71.79;102328.38;4865375;29;45487;-66
2022/11/10 10:29:01;;;;;;;;;15.50;14.25;;;;;11.84;71.74;102283.22;4865111;29;45720;-66
2022/11/10 10:31:34;;;;;;;;;21.75;16.75;;;;;12.13;71.59;102330.16;4848548;29;45480;-66
2022/11/10 10:34:00;;;;;;;;;17.25;16.25;;;;;12.20;71.65;102326.47;4865461;29;45437;-66
2022/11/10 10:36:29;;;;;;;;;19.25;17.25;;;;;12.27;71.66;102350.50;4865241;29;45340;-66
2022/11/10 10:39:00;;;;;;;;;15.25;15.25;;;;;12.30;71.92;102353.16;4865059;29;45666;-66
2022/11/10 10:41:31;;;;;;;;;11.00;10.25;;;;;12.34;71.82;102360.22;4865307;29;45590;-66
2022/11/10 10:43:59;;;;;;;;;17.75;16.00;;;;;12.03;71.51;102310.66;4864991;29;45421;-66
2022/11/10 10:46:28;;;;;;;;;17.00;15.50;;;;;12.23;71.78;102347.88;4865305;29;45424;-66
2022/11/10 10:49:20;;;;;;;;;20.50;17.00;;;;;12.39;71.59;102369.06;4864879;29;45483;-66
2022/11/10 10:51:49;;;;;;;;;12.50;12.50;;;;;12.41;71.28;102373.50;4856928;29;45730;-66
2022/11/10 10:54:30;;;;;;;;;19.00;15.00;;;;;12.42;71.46;102367.22;4854228;29;45403;-66
2022/11/10 10:57:29;;;;;;;;;18.00;14.25;;;;;12.41;71.59;102357.44;4864831;29;45608;-66
2022/11/10 11:00:19;;;;;;;;;13.00;11.75;;;;;12.37;71.61;102357.50;4847379;29;48006;-66
2022/11/10 11:03:01;;;;;;;;;13.75;13.00;;;;;12.34;71.56;102352.19;4857057;29;45535;-66
2022/11/10 11:05:26;;;;;;;;;19.75;17.00;;;;;12.30;72.09;102354.00;4852818;29;45386;-67
2022/11/10 11:07:57;;;;;;;;;14.50;13.25;;;;;12.27;72.19;102340.66;4855774;29;45387;-66
2022/11/10 11:10:25;;;;;;;;;19.75;16.50;;;;;12.28;71.96;102328.16;4853227;29;45728;-66
2022/11/10 11:12:51;;;;;;;;;15.00;14.75;;;;;12.32;72.07;102337.94;4863443;29;45562;-66
2022/11/10 11:15:29;;;;;;;;;21.25;17.25;;;;;12.14;72.06;102305.13;4864836;29;45285;-66
2022/11/10 11:17:59;;;;;;;;;16.75;15.00;;;;;12.22;72.15;102313.06;4864898;29;45421;-66
2022/11/10 11:20:37;;;;;;;;;18.00;16.50;;;;;12.47;72.27;102339.50;4864698;29;45362;-66
2022/11/10 11:23:12;;;;;;;;;14.50;13.50;;;;;12.50;72.11;102342.16;4864612;29;45409;-66
2022/11/10 11:25:41;;;;;;;;;20.75;16.25;;;;;12.48;71.96;102331.44;4864886;29;45409;-67
2022/11/10 11:28:25;;;;;;;;;20.50;15.00;;;;;12.40;72.12;102314.59;4857109;29;45506;-67
2022/11/10 11:30:56;;;;;;;;;16.50;14.00;;;;;12.57;72.23;102344.69;4863263;29;47401;-66